Terminal Aerodrome Forecast
Issued by NWS Charleston, WV

Current Version | Previous Version | Graphics & Text | Print | Product List | Glossary On
Versions: 1 2 3 4 5 6 7 8 9 10 11 12 13 14 15 16 17 18 19 20 21 22 23 24 25 26 27 28 29 30 31
000
FTUS41 KRLX 210800 AAB
TAFEKN
TAF AMD
KEKN 210816Z 2108/2206 00000KT 1 1/2SM BR FEW001 OVC090
     FM211000 00000KT 1/2SM FG BKN001
     FM211200 00000KT 3SM BR BKN001
     FM211300 VRB03KT P6SM SCT003 SCT050
     FM212000 14004KT P6SM VCSH BKN040
     FM220300 00000KT 4SM BR SCT050
     FM220400 00000KT 2SM BR SCT060=

USA.gov is the U.S. government's official web portal to all federal, state and local government web resources and services.